Terminal Aerodrome Forecast
Issued by NWS

Home | Current Version | Previous Version | Graphics & Text | Print | Product List | Glossary On
Versions: 1 2 3 4 5 6 7 8 9 10 11 12 13
003
FTUS43 KGRB 020520
TAFAUW
TAF
KAUW 020520Z 0206/0306 03005KT P6SM FEW080
     FM021600 35005KT P6SM SCT050 BKN080
     FM022300 VRB03KT P6SM FEW100=

USA.gov is the U.S. government's official web portal to all federal, state and local government web resources and services.